Time;durP1;ratioP1;P1;durP2;ratioP2;P2;SDS_P1;SDS_P2;PMS_P1;PMS_P2;Temp;Humidity;BMP_temperature;BMP_pressure;BME280_temperature;BME280_humidity;BME280_pressure;Samples;Min_cycle;Max_cycle;Signal;HPM_P1;HPM_P2
2022/03/27 00:01:04;;;;;;;0.30;0.10;;;21.90;43.90;;;;;;5062817;28;20085;-40
2022/03/27 00:03:30;;;;;;;0.68;0.10;;;21.90;43.90;;;;;;5061619;28;20025;-39
2022/03/27 00:05:57;;;;;;;0.13;0.13;;;21.90;44.20;;;;;;5063115;28;20064;-40
2022/03/27 00:08:23;;;;;;;0.30;0.10;;;21.90;43.60;;;;;;5062971;28;20054;-40
2022/03/27 00:13:34;;;;;;;0.20;0.20;;;21.90;43.40;;;;;;5062191;28;20056;-40
2022/03/27 00:16:00;;;;;;;0.32;0.10;;;21.90;43.40;;;;;;5059226;28;20581;-40
2022/03/27 00:18:28;;;;;;;0.30;0.10;;;21.90;43.30;;;;;;5062906;28;20048;-40
2022/03/27 00:20:54;;;;;;;0.10;0.10;;;21.90;43.70;;;;;;5053820;28;20029;-40
2022/03/27 00:23:20;;;;;;;0.15;0.13;;;21.90;43.80;;;;;;5042959;28;20030;-40
2022/03/27 00:25:48;;;;;;;0.10;0.10;;;21.90;43.70;;;;;;5044708;28;20033;-40
2022/03/27 00:28:14;;;;;;;0.30;0.10;;;21.90;43.30;;;;;;5063063;28;20041;-40
2022/03/27 00:30:41;;;;;;;0.10;0.10;;;21.90;43.20;;;;;;5062422;28;20110;-40
2022/03/27 00:33:07;;;;;;;0.50;0.20;;;21.90;43.30;;;;;;5062711;28;20039;-40
2022/03/27 00:35:33;;;;;;;0.20;0.20;;;21.90;43.10;;;;;;5062610;28;20040;-41
2022/03/27 00:37:59;;;;;;;0.20;0.15;;;21.90;43.30;;;;;;5062752;28;20341;-40
2022/03/27 00:40:26;;;;;;;0.20;0.10;;;21.90;43.70;;;;;;5061380;28;20115;-40
2022/03/27 00:42:52;;;;;;;0.17;0.10;;;21.90;43.80;;;;;;5062592;28;20045;-40
2022/03/27 00:45:18;;;;;;;0.13;0.13;;;21.90;43.50;;;;;;5062624;28;20088;-39
2022/03/27 00:47:44;;;;;;;0.10;0.10;;;21.90;43.40;;;;;;5062613;28;20036;-39
2022/03/27 00:50:10;;;;;;;0.10;0.10;;;21.90;43.40;;;;;;5062317;28;20438;-40
2022/03/27 00:52:37;;;;;;;0.30;0.20;;;21.90;43.30;;;;;;5062361;28;20398;-40
2022/03/27 00:55:03;;;;;;;0.10;0.10;;;21.90;43.20;;;;;;5062770;28;20060;-40
2022/03/27 00:57:30;;;;;;;0.10;0.10;;;21.90;43.30;;;;;;5062629;28;20033;-39
2022/03/27 00:59:56;;;;;;;0.10;0.10;;;21.90;43.70;;;;;;5062383;28;20036;-40
2022/03/27 01:02:22;;;;;;;0.23;0.10;;;21.90;43.80;;;;;;5062106;28;20040;-39
2022/03/27 01:04:49;;;;;;;0.20;0.10;;;21.90;43.40;;;;;;5061073;28;20400;-39
2022/03/27 01:07:20;;;;;;;0.40;0.13;;;21.90;43.50;;;;;;5062989;28;20017;-40
2022/03/27 01:09:46;;;;;;;0.40;0.20;;;21.90;43.40;;;;;;5058225;28;20018;-46
2022/03/27 01:12:22;;;;;;;0.17;0.10;;;21.90;43.40;;;;;;5065209;28;20021;-40
2022/03/27 01:14:50;;;;;;;0.10;0.10;;;21.90;42.90;;;;;;5046142;28;20053;-40
2022/03/27 01:17:18;;;;;;;0.52;0.20;;;21.90;43.00;;;;;;5055887;28;20056;-40
2022/03/27 01:19:46;;;;;;;0.73;0.20;;;21.90;43.70;;;;;;5065309;28;20043;-40
2022/03/27 01:22:13;;;;;;;0.20;0.20;;;21.90;43.40;;;;;;5065989;28;20508;-40
2022/03/27 01:24:39;;;;;;;0.20;0.17;;;21.90;43.40;;;;;;5066285;28;20401;-39
2022/03/27 01:27:05;;;;;;;0.20;0.10;;;21.90;43.40;;;;;;5066129;28;20025;-40
2022/03/27 01:29:31;;;;;;;0.17;0.10;;;21.90;43.50;;;;;;5065832;28;20055;-40
2022/03/27 01:31:58;;;;;;;0.20;0.20;;;21.80;43.10;;;;;;5057683;28;20106;-40
2022/03/27 01:34:24;;;;;;;0.50;0.15;;;21.80;43.20;;;;;;5045985;28;20050;-40
2022/03/27 01:36:50;;;;;;;0.40;0.20;;;21.90;43.90;;;;;;5045751;28;20018;-40
2022/03/27 01:39:16;;;;;;;0.20;0.20;;;21.90;43.80;;;;;;5046288;28;20029;-40
2022/03/27 01:41:43;;;;;;;1.50;0.20;;;21.80;43.40;;;;;;5060952;28;20081;-40
2022/03/27 01:44:11;;;;;;;0.20;0.20;;;21.90;43.50;;;;;;5065466;28;20486;-39
2022/03/27 01:46:38;;;;;;;0.10;0.10;;;21.80;43.40;;;;;;5058445;28;20961;-39
2022/03/27 01:49:06;;;;;;;0.10;0.10;;;21.80;43.20;;;;;;5046000;28;20032;-40
2022/03/27 01:51:32;;;;;;;0.20;0.20;;;21.80;43.30;;;;;;5045366;28;20047;-40
2022/03/27 01:53:58;;;;;;;0.13;0.10;;;21.90;43.70;;;;;;5045630;28;20033;-40
2022/03/27 01:56:25;;;;;;;0.22;0.20;;;21.80;43.50;;;;;;5052851;28;20032;-39
2022/03/27 01:58:51;;;;;;;0.20;0.10;;;21.80;43.50;;;;;;5065262;28;20813;-40
2022/03/27 02:01:17;;;;;;;0.30;0.20;;;21.80;43.50;;;;;;5065288;28;20285;-40
2022/03/27 02:03:43;;;;;;;0.20;0.20;;;21.80;43.40;;;;;;5065271;28;20029;-40
2022/03/27 02:06:10;;;;;;;0.20;0.13;;;21.80;43.30;;;;;;5065398;28;20040;-40
2022/03/27 02:08:36;;;;;;;0.32;0.20;;;21.80;43.30;;;;;;5065467;28;20060;-40
2022/03/27 02:11:03;;;;;;;0.10;0.10;;;21.80;43.80;;;;;;5057231;28;20029;-40
2022/03/27 02:13:29;;;;;;;0.65;0.20;;;21.80;43.50;;;;;;5063446;28;20049;-40
2022/03/27 02:15:57;;;;;;;0.20;0.20;;;21.90;43.70;;;;;;5065183;28;20051;-40
2022/03/27 02:18:27;;;;;;;0.52;0.20;;;21.80;43.60;;;;;;5064823;28;20274;-41
2022/03/27 02:20:54;;;;;;;0.40;0.17;;;21.80;43.50;;;;;;5041782;28;20026;-40
2022/03/27 02:23:21;;;;;;;0.15;0.15;;;21.80;43.30;;;;;;5045093;28;20089;-40
2022/03/27 02:25:48;;;;;;;0.30;0.20;;;21.80;43.50;;;;;;5047369;28;20088;-40
2022/03/27 02:28:14;;;;;;;0.20;0.20;;;21.80;43.80;;;;;;5064472;28;20088;-40
2022/03/27 02:30:41;;;;;;;1.95;0.30;;;21.80;43.50;;;;;;5064886;28;20029;-40
2022/03/27 02:33:07;;;;;;;0.17;0.17;;;21.80;43.60;;;;;;5064753;28;20035;-39
2022/03/27 02:35:33;;;;;;;0.22;0.20;;;21.80;43.50;;;;;;5065034;28;20043;-39
2022/03/27 02:38:00;;;;;;;1.10;0.30;;;21.80;43.20;;;;;;5064770;28;20056;-39
2022/03/27 02:40:26;;;;;;;0.38;0.30;;;21.80;43.30;;;;;;5056659;28;20060;-39
2022/03/27 02:42:53;;;;;;;0.30;0.20;;;21.80;43.50;;;;;;5064379;28;20042;-39
2022/03/27 02:45:19;;;;;;;0.17;0.15;;;21.80;43.50;;;;;;5064415;28;20096;-39
2022/03/27 02:47:45;;;;;;;0.30;0.20;;;21.80;43.50;;;;;;5064674;28;20090;-40
2022/03/27 02:50:11;;;;;;;0.13;0.13;;;21.80;43.50;;;;;;5064522;28;20037;-39
2022/03/27 02:52:37;;;;;;;0.35;0.28;;;21.70;43.40;;;;;;5064548;28;20055;-39
2022/03/27 02:55:04;;;;;;;0.22;0.20;;;21.80;43.30;;;;;;5064480;28;20041;-39
2022/03/27 02:57:30;;;;;;;1.67;0.30;;;21.70;43.30;;;;;;5064272;28;20033;-39
2022/03/27 02:59:57;;;;;;;0.15;0.10;;;21.80;43.70;;;;;;5064405;28;20285;-39
2022/03/27 03:02:23;;;;;;;0.38;0.20;;;21.80;43.30;;;;;;5064121;28;20417;-39
2022/03/27 03:04:49;;;;;;;0.45;0.30;;;21.80;43.40;;;;;;5064454;28;20056;-39
2022/03/27 03:07:15;;;;;;;0.20;0.20;;;21.80;43.40;;;;;;5063999;28;20051;-39
2022/03/27 03:09:42;;;;;;;0.40;0.20;;;21.70;43.30;;;;;;5057488;28;20037;-39
2022/03/27 03:12:09;;;;;;;0.10;0.10;;;21.80;43.30;;;;;;5062958;28;20033;-39
2022/03/27 03:14:56;;;;;;;0.30;0.20;;;21.70;43.30;;;;;;5063617;28;20294;-40
2022/03/27 03:17:28;;;;;;;0.30;0.20;;;21.70;43.50;;;;;;5041323;28;20040;-39
2022/03/27 03:19:54;;;;;;;0.38;0.30;;;21.70;43.20;;;;;;5040914;28;20041;-39
2022/03/27 03:22:20;;;;;;;0.28;0.10;;;21.70;43.40;;;;;;5041488;28;20093;-39
2022/03/27 03:24:47;;;;;;;0.22;0.20;;;21.70;43.30;;;;;;5040959;28;20032;-39
2022/03/27 03:27:13;;;;;;;0.20;0.20;;;21.70;43.20;;;;;;5041229;28;20030;-39
2022/03/27 03:29:39;;;;;;;0.20;0.20;;;21.70;43.20;;;;;;5041047;28;20030;-40
2022/03/27 03:32:06;;;;;;;0.35;0.20;;;21.70;43.40;;;;;;5040307;28;20492;-39
2022/03/27 03:34:32;;;;;;;0.10;0.10;;;21.70;43.50;;;;;;5036953;28;20065;-39
2022/03/27 03:36:58;;;;;;;0.30;0.20;;;21.70;43.50;;;;;;5041042;28;20035;-39
2022/03/27 03:39:24;;;;;;;0.30;0.20;;;21.70;43.50;;;;;;5040429;28;20069;-39
2022/03/27 03:41:50;;;;;;;0.20;0.20;;;21.70;43.40;;;;;;5040965;28;20693;-39
2022/03/27 03:44:17;;;;;;;0.30;0.22;;;21.70;43.30;;;;;;5040913;28;20053;-39
2022/03/27 03:46:44;;;;;;;0.20;0.20;;;21.70;43.40;;;;;;5040627;28;20033;-39
2022/03/27 03:49:10;;;;;;;0.47;0.20;;;21.70;43.40;;;;;;5041060;28;20025;-39
2022/03/27 03:51:36;;;;;;;0.32;0.20;;;21.70;43.70;;;;;;5040834;28;20025;-39
2022/03/27 03:54:04;;;;;;;0.37;0.20;;;21.70;43.60;;;;;;5035030;28;20093;-40
2022/03/27 03:56:30;;;;;;;0.32;0.20;;;21.70;43.70;;;;;;5063434;28;20031;-39
2022/03/27 03:58:56;;;;;;;1.27;0.30;;;21.70;43.50;;;;;;5063349;28;20048;-39
2022/03/27 04:01:22;;;;;;;0.30;0.10;;;21.70;43.30;;;;;;5063293;28;20024;-39
2022/03/27 04:03:48;;;;;;;0.52;0.20;;;21.60;43.30;;;;;;5063205;28;20565;-39
2022/03/27 04:06:15;;;;;;;0.20;0.20;;;21.70;43.60;;;;;;5063025;28;20032;-39
2022/03/27 04:08:41;;;;;;;0.23;0.10;;;21.70;43.40;;;;;;5063345;28;20055;-39
2022/03/27 04:11:07;;;;;;;0.30;0.20;;;21.70;43.40;;;;;;5054838;28;20103;-39
2022/03/27 04:13:33;;;;;;;0.20;0.15;;;21.70;43.40;;;;;;5062880;28;20037;-39
2022/03/27 04:16:00;;;;;;;0.30;0.20;;;21.70;43.40;;;;;;5062814;28;20033;-39
2022/03/27 04:18:26;;;;;;;;;;;21.60;43.20;;;;;;5062462;28;20025;-39
2022/03/27 04:20:52;;;;;;;0.38;0.20;;;21.70;43.30;;;;;;5043309;28;19916;-39
2022/03/27 04:23:19;;;;;;;0.30;0.20;;;21.60;43.50;;;;;;5043046;28;20025;-39
2022/03/27 04:25:45;;;;;;;0.30;0.30;;;21.70;43.50;;;;;;5041528;28;20033;-39
2022/03/27 04:28:11;;;;;;;0.10;0.10;;;21.70;43.60;;;;;;5059112;28;20051;-39
2022/03/27 04:30:37;;;;;;;0.30;0.20;;;21.70;43.50;;;;;;5062937;28;20033;-39
2022/03/27 04:33:04;;;;;;;0.43;0.20;;;21.60;43.30;;;;;;5062944;28;20035;-39
2022/03/27 04:35:30;;;;;;;0.50;0.20;;;21.60;43.30;;;;;;5062527;28;20033;-40
2022/03/27 04:37:56;;;;;;;0.15;0.15;;;21.60;43.40;;;;;;5062853;28;20621;-39
2022/03/27 04:40:22;;;;;;;0.28;0.13;;;21.60;43.50;;;;;;5054819;28;20025;-39
2022/03/27 04:42:48;;;;;;;0.30;0.20;;;21.60;43.50;;;;;;5064721;28;20025;-40
2022/03/27 04:45:15;;;;;;;0.20;0.20;;;21.60;43.50;;;;;;5066907;28;20093;-39
2022/03/27 04:47:41;;;;;;;0.20;0.20;;;21.60;43.50;;;;;;5066737;28;20029;-39
2022/03/27 04:50:08;;;;;;;0.30;0.20;;;21.60;43.30;;;;;;5067268;28;20033;-39
2022/03/27 04:52:34;;;;;;;;;;;21.60;43.40;;;;;;5067488;28;20082;-39
2022/03/27 04:55:00;;;;;;;0.70;0.20;;;21.60;43.50;;;;;;5066965;28;19923;-39
2022/03/27 04:57:37;;;;;;;0.45;0.20;;;21.60;43.50;;;;;;5066388;28;20078;-39
2022/03/27 05:00:10;;;;;;;0.25;0.15;;;21.60;43.60;;;;;;5066866;28;20025;-39
2022/03/27 05:02:40;;;;;;;0.20;0.20;;;21.60;43.50;;;;;;5066699;28;20367;-40
2022/03/27 05:05:08;;;;;;;0.20;0.20;;;21.60;43.30;;;;;;5066749;28;20036;-39
2022/03/27 05:07:36;;;;;;;0.13;0.13;;;21.60;43.50;;;;;;5066262;28;20115;-39
2022/03/27 05:10:06;;;;;;;0.20;0.17;;;21.60;43.60;;;;;;5065445;28;20036;-39
2022/03/27 05:12:32;;;;;;;0.20;0.17;;;21.60;43.60;;;;;;5066457;28;20032;-40
2022/03/27 05:14:58;;;;;;;0.17;0.17;;;21.60;43.60;;;;;;5066506;28;20048;-39
2022/03/27 05:17:24;;;;;;;0.28;0.10;;;21.60;43.60;;;;;;5065910;28;20051;-39
2022/03/27 05:19:50;;;;;;;0.10;0.10;;;21.60;43.50;;;;;;5059972;28;20132;-39
2022/03/27 05:22:16;;;;;;;0.30;0.20;;;21.60;43.50;;;;;;5046249;28;20029;-40
2022/03/27 05:24:43;;;;;;;0.20;0.10;;;21.60;43.50;;;;;;5046659;28;20073;-39
2022/03/27 05:27:09;;;;;;;0.30;0.30;;;21.60;43.60;;;;;;5053216;28;20055;-39
2022/03/27 05:29:35;;;;;;;0.30;0.10;;;21.60;43.60;;;;;;5065932;28;20021;-39
2022/03/27 05:32:01;;;;;;;0.20;0.10;;;21.60;43.60;;;;;;5066361;28;20024;-39
2022/03/27 05:34:27;;;;;;;0.15;0.15;;;21.60;43.40;;;;;;5065979;28;20037;-40
2022/03/27 05:36:53;;;;;;;0.13;0.10;;;21.60;43.50;;;;;;5062514;28;20032;-39
2022/03/27 05:39:19;;;;;;;0.20;0.17;;;21.60;43.50;;;;;;5065340;28;20032;-39
2022/03/27 05:41:46;;;;;;;0.20;0.20;;;21.60;43.60;;;;;;5066233;28;20033;-39
2022/03/27 05:44:12;;;;;;;0.30;0.30;;;21.60;43.40;;;;;;5065786;28;20047;-39
2022/03/27 05:46:38;;;;;;;0.10;0.10;;;21.60;43.60;;;;;;5065129;28;20033;-39
2022/03/27 05:49:04;;;;;;;0.20;0.10;;;21.60;43.40;;;;;;5065780;28;20028;-39
2022/03/27 05:51:30;;;;;;;0.10;0.10;;;21.60;43.50;;;;;;5065354;28;20021;-39
2022/03/27 05:53:56;;;;;;;0.10;0.10;;;21.60;43.50;;;;;;5064499;28;20336;-38
2022/03/27 05:56:22;;;;;;;0.15;0.10;;;21.60;43.60;;;;;;5065573;28;20033;-39
2022/03/27 05:58:48;;;;;;;0.28;0.20;;;21.60;43.60;;;;;;5065506;28;20055;-39
2022/03/27 06:01:15;;;;;;;0.20;0.10;;;21.60;43.70;;;;;;5056436;28;20040;-39
2022/03/27 06:03:41;;;;;;;0.10;0.10;;;21.60;43.50;;;;;;5045357;28;20021;-39
2022/03/27 06:06:07;;;;;;;0.27;0.10;;;21.60;43.40;;;;;;5055310;28;20041;-39
2022/03/27 06:08:33;;;;;;;0.47;0.20;;;21.60;43.50;;;;;;5065198;28;20036;-38
2022/03/27 06:11:00;;;;;;;0.10;0.10;;;21.60;43.60;;;;;;5057617;28;20036;-39
2022/03/27 06:13:26;;;;;;;0.13;0.10;;;21.60;43.70;;;;;;5064785;28;20045;-39
2022/03/27 06:15:54;;;;;;;0.10;0.10;;;21.60;43.70;;;;;;5065356;28;20056;-40
2022/03/27 06:18:20;;;;;;;0.30;0.15;;;21.50;43.60;;;;;;5064884;28;20055;-40
2022/03/27 06:20:46;;;;;;;0.10;0.10;;;21.60;43.50;;;;;;5065206;28;20140;-40
2022/03/27 06:23:13;;;;;;;0.20;0.10;;;21.60;43.50;;;;;;5061994;28;20021;-39
2022/03/27 06:25:39;;;;;;;0.10;0.10;;;21.60;43.50;;;;;;5065329;28;20033;-38
2022/03/27 06:28:05;;;;;;;0.50;0.10;;;21.60;43.70;;;;;;5064816;28;20614;-39
2022/03/27 06:30:32;;;;;;;0.73;0.10;;;21.50;43.70;;;;;;5045141;28;20848;-40
2022/03/27 06:32:59;;;;;;;0.10;0.10;;;21.60;43.60;;;;;;5044695;28;20033;-40
2022/03/27 06:35:25;;;;;;;0.20;0.15;;;21.50;43.50;;;;;;5044838;28;20038;-38
2022/03/27 06:37:52;;;;;;;0.10;0.10;;;21.50;43.40;;;;;;5044652;28;20026;-38
2022/03/27 06:40:20;;;;;;;0.30;0.10;;;21.50;43.50;;;;;;5048634;28;20032;-39
2022/03/27 06:42:46;;;;;;;0.47;0.20;;;21.60;43.70;;;;;;5064688;28;20032;-38
2022/03/27 06:45:13;;;;;;;0.28;0.22;;;21.60;43.60;;;;;;5064659;28;20115;-40
2022/03/27 06:47:40;;;;;;;0.10;0.10;;;21.50;43.50;;;;;;5062889;28;20044;-38
2022/03/27 06:50:06;;;;;;;0.17;0.17;;;21.50;43.60;;;;;;5064829;28;20040;-38
2022/03/27 06:52:33;;;;;;;0.20;0.10;;;21.50;43.50;;;;;;5064297;28;20060;-38
2022/03/27 06:54:59;;;;;;;0.30;0.13;;;21.50;43.60;;;;;;5064522;28;20067;-38
2022/03/27 06:57:25;;;;;;;0.10;0.10;;;21.50;43.60;;;;;;5064336;28;20037;-39
2022/03/27 07:05:22;;;;;;;0.20;0.10;;;21.50;43.70;;;;;;5064326;28;20512;-39
2022/03/27 07:07:48;;;;;;;;;;;21.50;43.60;;;;;;5064362;28;20052;-38
2022/03/27 07:10:14;;;;;;;0.13;0.13;;;21.50;43.70;;;;;;5063072;28;19913;-38
2022/03/27 07:12:42;;;;;;;0.20;0.20;;;21.50;43.70;;;;;;5063647;28;20076;-39
2022/03/27 07:15:09;;;;;;;0.10;0.10;;;21.50;43.80;;;;;;5063819;28;20056;-39
2022/03/27 07:17:46;;;;;;;0.40;0.10;;;21.50;43.80;;;;;;5063783;28;20482;-39
2022/03/27 07:20:15;;;;;;;0.22;0.10;;;21.50;43.90;;;;;;5060128;28;20460;-39
2022/03/27 07:22:41;;;;;;;0.13;0.10;;;21.50;43.80;;;;;;5042758;28;20061;-39
2022/03/27 07:25:09;;;;;;;0.30;0.20;;;21.50;43.70;;;;;;5059923;28;20135;-39
2022/03/27 07:27:35;;;;;;;0.10;0.10;;;21.50;44.30;;;;;;5063843;28;20036;-39
2022/03/27 07:30:01;;;;;;;0.30;0.20;;;21.50;43.90;;;;;;5063519;28;20063;-39
2022/03/27 07:32:27;;;;;;;0.10;0.10;;;21.50;43.90;;;;;;5063894;28;20079;-39
2022/03/27 07:34:54;;;;;;;0.50;0.15;;;21.50;44.00;;;;;;5063487;28;20075;-39
2022/03/27 07:37:20;;;;;;;0.13;0.10;;;21.50;43.90;;;;;;5063739;28;20032;-39
2022/03/27 07:39:46;;;;;;;0.10;0.10;;;21.50;43.70;;;;;;5060515;28;20043;-39
2022/03/27 07:42:13;;;;;;;0.35;0.20;;;21.50;43.80;;;;;;5063544;28;20029;-39
2022/03/27 07:44:39;;;;;;;0.10;0.10;;;21.50;43.90;;;;;;5043503;28;20044;-38
2022/03/27 07:47:06;;;;;;;0.30;0.10;;;21.50;44.00;;;;;;5053915;28;20031;-38
2022/03/27 07:49:32;;;;;;;0.07;0.07;;;21.50;43.90;;;;;;5063232;28;20029;-38
2022/03/27 07:52:00;;;;;;;0.17;0.10;;;21.50;44.00;;;;;;5063415;28;20033;-39
2022/03/27 07:54:27;;;;;;;0.30;0.20;;;21.50;43.90;;;;;;5063275;28;20045;-39
2022/03/27 07:56:53;;;;;;;0.20;0.20;;;21.50;43.80;;;;;;5062933;28;20032;-39
2022/03/27 07:59:19;;;;;;;0.20;0.20;;;21.50;43.90;;;;;;5063080;28;20127;-38
2022/03/27 08:01:46;;;;;;;0.30;0.20;;;21.50;43.90;;;;;;5063156;28;20029;-39
2022/03/27 08:04:12;;;;;;;0.10;0.10;;;21.50;44.10;;;;;;5063299;28;20033;-39
2022/03/27 08:06:38;;;;;;;0.43;0.10;;;21.50;44.10;;;;;;5062970;28;20337;-40
2022/03/27 08:09:05;;;;;;;0.10;0.10;;;21.50;44.10;;;;;;5061059;28;20057;-40
2022/03/27 08:11:32;;;;;;;0.30;0.20;;;21.50;43.90;;;;;;5056494;28;20036;-40
2022/03/27 08:13:58;;;;;;;0.10;0.10;;;21.50;43.90;;;;;;5062518;28;20049;-40
2022/03/27 08:16:26;;;;;;;0.30;0.20;;;21.50;43.90;;;;;;5062757;28;20603;-40
2022/03/27 08:18:52;;;;;;;0.10;0.10;;;21.50;44.10;;;;;;5054585;28;20030;-38
2022/03/27 08:21:18;;;;;;;0.43;0.20;;;21.50;44.10;;;;;;5043092;28;20061;-39
2022/03/27 08:23:44;;;;;;;0.10;0.10;;;21.50;44.20;;;;;;5047255;28;20029;-38
2022/03/27 08:28:55;;;;;;;0.10;0.10;;;21.50;43.90;;;;;;5062473;28;20055;-38
2022/03/27 08:31:21;;;;;;;0.20;0.15;;;21.40;44.00;;;;;;5062623;28;20130;-39
2022/03/27 08:33:48;;;;;;;0.50;0.10;;;21.50;44.20;;;;;;5061999;28;20052;-39
2022/03/27 08:36:14;;;;;;;0.20;0.15;;;21.50;44.20;;;;;;5062697;28;20044;-38
2022/03/27 08:38:40;;;;;;;0.40;0.10;;;21.50;44.30;;;;;;5062460;28;20099;-38
2022/03/27 08:41:06;;;;;;;0.20;0.17;;;21.40;44.10;;;;;;5054439;28;20057;-39
2022/03/27 08:43:33;;;;;;;0.20;0.10;;;21.40;44.00;;;;;;5062557;28;20048;-39
2022/03/27 08:46:00;;;;;;;0.60;0.50;;;21.40;44.10;;;;;;5062539;28;20055;-39
2022/03/27 08:48:30;;;;;;;0.10;0.10;;;21.40;44.20;;;;;;5062636;28;20029;-38
2022/03/27 08:51:20;;;;;;;0.15;0.15;;;21.40;44.40;;;;;;5044977;28;20023;-39
2022/03/27 08:54:08;;;;;;;0.22;0.20;;;21.50;44.50;;;;;;5050840;28;20128;-39
2022/03/27 08:56:34;;;;;;;0.10;0.10;;;21.50;44.40;;;;;;5062481;28;20076;-39
2022/03/27 08:59:08;;;;;;;0.15;0.10;;;21.40;44.20;;;;;;5062404;28;20029;-39
2022/03/27 09:01:34;;;;;;;0.13;0.10;;;21.40;44.30;;;;;;5062411;28;20146;-39
2022/03/27 09:04:00;;;;;;;0.25;0.17;;;21.40;44.90;;;;;;5062362;28;20025;-39
2022/03/27 09:06:26;;;;;;;0.10;0.10;;;21.40;44.50;;;;;;5061969;28;20028;-38
2022/03/27 09:08:55;;;;;;;0.47;0.10;;;21.40;44.50;;;;;;5062045;28;20040;-39
2022/03/27 09:11:23;;;;;;;0.10;0.10;;;21.40;44.40;;;;;;5054363;28;20029;-38
2022/03/27 09:13:50;;;;;;;;;;;21.40;44.30;;;;;;5055580;28;20056;-39
2022/03/27 09:16:17;;;;;;;0.10;0.10;;;21.40;44.40;;;;;;5062329;28;19923;-39
2022/03/27 09:18:44;;;;;;;0.10;0.10;;;21.40;44.40;;;;;;5062262;28;20032;-38
2022/03/27 09:21:10;;;;;;;0.17;0.17;;;21.40;44.60;;;;;;5061294;28;20119;-39
2022/03/27 09:23:36;;;;;;;0.20;0.10;;;21.40;44.70;;;;;;5046489;28;20032;-38
2022/03/27 09:26:04;;;;;;;0.10;0.10;;;21.40;44.50;;;;;;5062235;28;20020;-38
2022/03/27 09:28:31;;;;;;;0.20;0.20;;;21.40;44.40;;;;;;5063226;28;20025;-39
2022/03/27 09:31:04;;;;;;;0.10;0.10;;;21.40;44.50;;;;;;5065646;28;20125;-39
2022/03/27 09:33:31;;;;;;;0.35;0.20;;;21.40;44.60;;;;;;5065056;28;20539;-38
2022/03/27 09:36:08;;;;;;;0.10;0.10;;;21.40;44.70;;;;;;5065826;28;20105;-39
2022/03/27 09:38:35;;;;;;;0.13;0.10;;;21.40;44.80;;;;;;5065967;28;20061;-37
2022/03/27 09:41:01;;;;;;;0.05;0.05;;;21.40;44.70;;;;;;5056786;28;20029;-38
2022/03/27 09:43:27;;;;;;;0.57;0.30;;;21.40;44.40;;;;;;5064258;28;20037;-39
2022/03/27 09:46:01;;;;;;;0.10;0.10;;;21.40;44.50;;;;;;5065716;28;20067;-39
2022/03/27 09:48:27;;;;;;;0.15;0.10;;;21.40;44.50;;;;;;5065356;28;20100;-38
2022/03/27 09:50:55;;;;;;;0.20;0.10;;;21.40;44.60;;;;;;5065468;28;20044;-39
2022/03/27 09:53:25;;;;;;;0.10;0.10;;;21.40;44.70;;;;;;5065508;28;20037;-38
2022/03/27 09:56:01;;;;;;;0.22;0.20;;;21.40;44.60;;;;;;5065306;28;20033;-38
2022/03/27 09:58:57;;;;;;;0.28;0.20;;;21.40;44.40;;;;;;5045505;28;20493;-38
2022/03/27 10:01:24;;;;;;;0.10;0.10;;;21.40;44.50;;;;;;5036365;28;20093;-40
2022/03/27 10:03:59;;;;;;;;;;;21.40;44.70;;;;;;5056633;28;20033;-40
2022/03/27 10:06:36;;;;;;;0.13;0.10;;;21.40;44.60;;;;;;5065269;28;19909;-40
2022/03/27 10:09:03;;;;;;;0.20;0.20;;;21.40;44.70;;;;;;5063781;28;20029;-40
2022/03/27 10:11:29;;;;;;;0.77;0.20;;;21.40;44.60;;;;;;5059064;28;20266;-39
2022/03/27 10:13:55;;;;;;;0.17;0.17;;;21.40;44.40;;;;;;5064069;28;20528;-40
2022/03/27 10:16:46;;;;;;;0.10;0.10;;;21.40;44.50;;;;;;5065221;28;20041;-40
2022/03/27 10:19:29;;;;;;;0.55;0.20;;;21.40;44.60;;;;;;5056333;28;20080;-39
2022/03/27 10:21:55;;;;;;;0.30;0.20;;;21.40;44.70;;;;;;5063425;28;20060;-40
2022/03/27 10:24:23;;;;;;;0.20;0.13;;;21.40;44.70;;;;;;5053983;28;20036;-41
2022/03/27 10:26:49;;;;;;;0.52;0.20;;;21.40;44.60;;;;;;5043752;28;20034;-40
2022/03/27 10:29:15;;;;;;;0.30;0.17;;;21.30;44.50;;;;;;5043673;28;20029;-40
2022/03/27 10:31:42;;;;;;;0.25;0.10;;;21.30;45.10;;;;;;5044580;28;20052;-38
2022/03/27 10:34:10;;;;;;;0.10;0.10;;;21.40;44.70;;;;;;5058234;28;20037;-38
2022/03/27 10:37:00;;;;;;;0.17;0.10;;;21.40;44.80;;;;;;5063596;28;20037;-38
2022/03/27 10:40:18;;;;;;;0.10;0.10;;;21.40;44.80;;;;;;5043724;28;20135;-40
2022/03/27 10:43:11;;;;;;;0.15;0.10;;;21.40;44.70;;;;;;4986675;28;20503;-38
2022/03/27 10:45:38;;;;;;;0.10;0.10;;;21.30;44.60;;;;;;4986235;28;20117;-38
2022/03/27 10:48:14;;;;;;;0.47;0.10;;;21.30;44.60;;;;;;5002304;28;20538;-39
2022/03/27 10:50:49;;;;;;;0.13;0.10;;;21.40;44.80;;;;;;5002120;28;20058;-40
2022/03/27 10:53:15;;;;;;;0.30;0.20;;;21.40;44.80;;;;;;5002301;28;20074;-39
2022/03/27 10:55:44;;;;;;;0.10;0.10;;;21.30;44.80;;;;;;5002431;28;20546;-39
2022/03/27 10:58:36;;;;;;;0.22;0.20;;;21.30;44.70;;;;;;5002234;28;20081;-39
2022/03/27 11:01:08;;;;;;;0.22;0.10;;;21.30;44.70;;;;;;5009720;28;20034;-39
2022/03/27 11:03:47;;;;;;;0.25;0.10;;;21.30;44.70;;;;;;5021595;28;20085;-39
2022/03/27 11:06:29;;;;;;;0.20;0.10;;;21.30;44.90;;;;;;5021853;28;20041;-39
2022/03/27 11:08:59;;;;;;;0.10;0.10;;;21.30;44.90;;;;;;5020887;28;20042;-38
2022/03/27 11:11:40;;;;;;;0.30;0.20;;;21.30;44.80;;;;;;5014521;28;20407;-42
2022/03/27 11:14:07;;;;;;;0.20;0.10;;;21.30;44.70;;;;;;5056498;28;20572;-38
2022/03/27 11:16:36;;;;;;;0.25;0.20;;;21.30;44.80;;;;;;5064111;28;20363;-39
2022/03/27 11:19:03;;;;;;;0.22;0.20;;;21.30;44.80;;;;;;5063734;28;20441;-39
2022/03/27 11:21:29;;;;;;;0.20;0.10;;;21.30;44.90;;;;;;5062755;28;20036;-39
2022/03/27 11:24:04;;;;;;;0.20;0.20;;;21.30;45.00;;;;;;5051223;28;20802;-39
2022/03/27 11:26:30;;;;;;;0.57;0.10;;;21.30;44.80;;;;;;5063938;28;20051;-38
2022/03/27 11:29:18;;;;;;;0.20;0.20;;;21.30;44.70;;;;;;5063533;28;20017;-39
2022/03/27 11:31:44;;;;;;;0.10;0.10;;;21.30;44.80;;;;;;5063294;28;20029;-39
2022/03/27 11:34:16;;;;;;;0.20;0.20;;;21.30;44.90;;;;;;5061335;28;20056;-39
2022/03/27 11:36:43;;;;;;;0.20;0.20;;;21.30;45.00;;;;;;5047906;28;20025;-38
2022/03/27 11:39:11;;;;;;;0.10;0.10;;;21.30;45.00;;;;;;5045232;28;20045;-39
2022/03/27 11:41:45;;;;;;;0.10;0.10;;;21.30;44.90;;;;;;5063493;28;20033;-39
2022/03/27 11:47:21;;;;;;;0.20;0.15;;;21.30;44.90;;;;;;5063229;28;20056;-39
2022/03/27 11:49:48;;;;;;;0.25;0.20;;;21.30;45.00;;;;;;5063366;28;20025;-39
2022/03/27 11:52:15;;;;;;;0.10;0.10;;;21.30;45.00;;;;;;5062437;28;20029;-38
2022/03/27 11:54:41;;;;;;;0.20;0.20;;;21.30;45.10;;;;;;5062993;28;20041;-38
2022/03/27 11:57:09;;;;;;;0.20;0.20;;;21.30;44.90;;;;;;5062982;28;20036;-39
2022/03/27 11:59:49;;;;;;;0.15;0.15;;;21.30;44.80;;;;;;5062906;28;20033;-39
2022/03/27 12:02:16;;;;;;;0.20;0.10;;;21.30;44.90;;;;;;5062605;28;20093;-38
2022/03/27 12:04:56;;;;;;;0.15;0.15;;;21.30;45.00;;;;;;5062938;28;20059;-39
2022/03/27 12:07:23;;;;;;;0.40;0.10;;;21.30;45.00;;;;;;5043122;28;20037;-38
2022/03/27 12:10:00;;;;;;;0.22;0.17;;;21.30;45.00;;;;;;5049456;28;20057;-39
2022/03/27 12:12:27;;;;;;;0.10;0.10;;;21.30;44.80;;;;;;5044247;28;20045;-39
2022/03/27 12:14:55;;;;;;;0.20;0.20;;;21.30;44.80;;;;;;5060832;28;20084;-38
2022/03/27 12:17:31;;;;;;;0.30;0.20;;;21.30;44.90;;;;;;5062589;28;20036;-39
2022/03/27 12:20:08;;;;;;;0.68;0.20;;;21.30;45.00;;;;;;5063064;28;20037;-39
2022/03/27 12:22:50;;;;;;;0.40;0.20;;;21.30;45.10;;;;;;5062194;28;20029;-38
2022/03/27 12:25:25;;;;;;;0.17;0.10;;;21.30;45.00;;;;;;5063029;28;20036;-39
2022/03/27 12:30:52;;;;;;;0.22;0.20;;;21.20;44.80;;;;;;5062897;28;20078;-39
2022/03/27 12:33:19;;;;;;;;;;;21.30;44.90;;;;;;5062729;28;20194;-39
2022/03/27 12:35:47;;;;;;;0.10;0.10;;;21.30;44.90;;;;;;5062678;28;19935;-39
2022/03/27 12:38:13;;;;;;;0.25;0.20;;;21.30;45.60;;;;;;5062862;28;20124;-39
2022/03/27 12:40:44;;;;;;;0.20;0.20;;;21.30;44.90;;;;;;5062165;28;20083;-38
2022/03/27 12:43:14;;;;;;;0.22;0.10;;;21.20;44.80;;;;;;5061944;28;20490;-39
2022/03/27 12:45:41;;;;;;;0.20;0.20;;;21.30;44.80;;;;;;5062669;28;20071;-44
2022/03/27 12:48:13;;;;;;;0.22;0.20;;;21.20;44.70;;;;;;5062447;28;20098;-39
2022/03/27 12:50:47;;;;;;;0.20;0.20;;;21.30;44.80;;;;;;5062516;28;20029;-39
2022/03/27 12:53:20;;;;;;;0.63;0.20;;;21.30;44.70;;;;;;5062420;28;20041;-39
2022/03/27 12:55:50;;;;;;;0.95;0.20;;;21.20;44.60;;;;;;5062655;28;20124;-39
2022/03/27 12:58:37;;;;;;;0.20;0.20;;;21.30;44.50;;;;;;5062373;28;20043;-39
2022/03/27 13:01:10;;;;;;;0.10;0.10;;;21.30;44.60;;;;;;5054435;28;20040;-39
2022/03/27 13:03:38;;;;;;;0.20;0.10;;;21.30;44.50;;;;;;5043458;28;20052;-39
2022/03/27 13:06:05;;;;;;;0.30;0.13;;;21.30;44.50;;;;;;5056435;28;20036;-39
2022/03/27 13:08:34;;;;;;;0.52;0.20;;;21.30;44.60;;;;;;5066343;28;20025;-40
2022/03/27 13:11:04;;;;;;;0.30;0.20;;;21.30;44.50;;;;;;5059582;28;20032;-39